createdAt,value
2022-12-05T00:03:49.676Z,4.8
2022-12-05T00:09:12.675Z,4.8
2022-12-05T00:14:35.073Z,4.8
2022-12-05T00:19:57.815Z,4.8
2022-12-05T00:25:36.133Z,4.8
2022-12-05T00:31:12.743Z,4.8
2022-12-05T00:36:34.374Z,4.8
2022-12-05T00:42:18.233Z,4.7
2022-12-05T00:47:57.972Z,4.7
2022-12-05T00:53:20.421Z,4.7
2022-12-05T00:58:58.183Z,4.7
2022-12-05T01:04:36.939Z,4.6
2022-12-05T01:09:59.951Z,4.6
2022-12-05T01:15:25.142Z,4.6
2022-12-05T01:20:48.088Z,4.6
2022-12-05T01:26:25.481Z,4.6
2022-12-05T01:31:48.819Z,4.5
2022-12-05T01:37:26.910Z,4.5
2022-12-05T01:42:53.540Z,4.5
2022-12-05T01:48:16.310Z,4.5
2022-12-05T01:53:39.327Z,4.6
2022-12-05T01:59:01.722Z,4.6
2022-12-05T02:09:47.745Z,4.6
2022-12-05T02:15:12.503Z,4.6
2022-12-05T02:20:50.114Z,4.6
2022-12-05T02:26:27.539Z,4.6
2022-12-05T02:32:05.317Z,4.6
2022-12-05T02:37:26.603Z,4.5
2022-12-05T02:43:04.723Z,4.5
2022-12-05T02:48:42.649Z,4.6
2022-12-05T02:54:20.537Z,4.6
2022-12-05T02:59:57.916Z,4.6
2022-12-05T03:05:35.837Z,4.6
2022-12-05T03:11:13.992Z,4.6
2022-12-05T03:16:36.571Z,4.6
2022-12-05T03:22:15.053Z,4.7
2022-12-05T03:27:52.758Z,4.7
2022-12-05T03:33:15.423Z,4.7
2022-12-05T03:38:52.506Z,4.7
2022-12-05T03:44:16.634Z,4.7
2022-12-05T03:49:54.447Z,4.7
2022-12-05T03:55:51.935Z,4.7
2022-12-05T04:01:29.629Z,4.8
2022-12-05T04:06:52.176Z,4.8
2022-12-05T04:12:30.695Z,4.8
2022-12-05T04:18:10.424Z,4.8
2022-12-05T04:23:48.112Z,4.7
2022-12-05T04:28:55.023Z,4.7
2022-12-05T04:34:18.216Z,4.7
2022-12-05T04:39:30.971Z,4.7
2022-12-05T04:49:46.906Z,4.8
2022-12-05T04:55:13.214Z,4.8
2022-12-05T05:00:56.410Z,4.7
2022-12-05T05:06:39.624Z,4.8
2022-12-05T05:12:19.269Z,4.8
2022-12-05T05:17:56.703Z,4.8
2022-12-05T05:23:34.755Z,4.8
2022-12-05T05:29:14.940Z,4.8
2022-12-05T05:34:42.728Z,4.8
2022-12-05T05:40:27.250Z,4.9
2022-12-05T05:46:04.971Z,4.9
2022-12-05T05:51:49.468Z,4.9
2022-12-05T05:57:36.624Z,4.9
2022-12-05T06:02:44.123Z,4.9
2022-12-05T06:08:28.108Z,4.9
2022-12-05T06:14:06.002Z,4.9
2022-12-05T06:19:44.421Z,4.9
2022-12-05T06:25:27.700Z,4.9
2022-12-05T06:31:11.006Z,5
2022-12-05T06:36:49.004Z,5.1
2022-12-05T06:42:26.157Z,5.1
2022-12-05T06:48:04.539Z,5.1
2022-12-05T06:53:31.619Z,5.3
2022-12-05T06:59:09.303Z,5.3
2022-12-05T07:04:48.779Z,5.3
2022-12-05T07:10:32.913Z,5.4
2022-12-05T07:16:36.135Z,5.3
2022-12-05T07:22:48.734Z,5.4
2022-12-05T07:28:33.593Z,5.5
2022-12-05T07:33:56.300Z,5.6
2022-12-05T07:39:33.934Z,5.5
2022-12-05T07:45:12.727Z,5.4
2022-12-05T07:50:53.458Z,5.6
2022-12-05T07:56:30.875Z,5.6
2022-12-05T08:02:10.176Z,5.6
2022-12-05T08:07:52.962Z,5.6
2022-12-05T08:13:37.393Z,5.8
2022-12-05T08:19:17.811Z,5.7
2022-12-05T08:24:39.787Z,5.7
2022-12-05T08:30:18.183Z,5.8
2022-12-05T08:35:44.373Z,5.8
2022-12-05T08:41:24.016Z,5.9
2022-12-05T08:47:02.846Z,6.1
2022-12-05T08:52:44.093Z,5.9
2022-12-05T08:58:28.218Z,6
2022-12-05T09:04:16.316Z,6.1
2022-12-05T09:10:15.641Z,6.1
2022-12-05T09:15:53.614Z,6.1
2022-12-05T09:21:33.821Z,6.3
2022-12-05T09:27:15.720Z,6.5
2022-12-05T09:32:59.122Z,6.4
2022-12-05T09:39:06.348Z,6.3
2022-12-05T09:44:43.881Z,6.4
2022-12-05T09:50:23.213Z,6.6
2022-12-05T09:56:05.690Z,6.4
2022-12-05T10:01:49.555Z,6.4
2022-12-05T10:07:34.802Z,6.7
2022-12-05T10:13:13.316Z,6.5
2022-12-05T10:18:54.628Z,6.6
2022-12-05T10:25:07.322Z,6.6
2022-12-05T10:30:48.393Z,6.8
2022-12-05T10:36:34.924Z,6.8
2022-12-05T10:42:18.702Z,6.9
2022-12-05T10:48:02.296Z,6.7
2022-12-05T10:53:40.039Z,6.6
2022-12-05T11:00:02.200Z,6.8
2022-12-05T11:05:44.865Z,6.6
2022-12-05T11:11:55.712Z,6.7
2022-12-05T11:17:40.344Z,6.9
2022-12-05T11:23:21.855Z,6.8
2022-12-05T11:29:03.925Z,6.8
2022-12-05T11:34:42.552Z,6.6
2022-12-05T11:40:25.288Z,6.8
2022-12-05T11:45:51.417Z,6.8
2022-12-05T11:51:16.453Z,6.7
2022-12-05T11:57:32.498Z,6.8
2022-12-05T12:03:14.464Z,6.6
2022-12-05T12:08:55.815Z,6.9
2022-12-05T12:14:39.443Z,6.8
2022-12-05T12:20:23.906Z,6.4
2022-12-05T12:26:07.579Z,6.4
2022-12-05T12:31:47.885Z,6.2
2022-12-05T12:37:11.602Z,6.3
2022-12-05T12:42:50.930Z,6.4
2022-12-05T12:49:03.463Z,6.3
2022-12-05T12:55:18.265Z,6.4
2022-12-05T13:01:00.437Z,6.3
2022-12-05T13:06:44.298Z,6.4
2022-12-05T13:12:26.440Z,6.4
2022-12-05T13:17:53.147Z,6.4
2022-12-05T13:23:21.168Z,6.3
2022-12-05T13:28:59.418Z,6.2
2022-12-05T13:34:29.425Z,6.3
2022-12-05T13:40:12.547Z,6.1
2022-12-05T13:46:06.920Z,6.1
2022-12-05T13:51:50.220Z,6.1
2022-12-05T13:57:33.984Z,6.1
2022-12-05T14:03:17.647Z,6.1
2022-12-05T14:08:55.139Z,6.1
2022-12-05T14:14:37.985Z,6.1
2022-12-05T14:20:23.852Z,6
2022-12-05T14:26:14.163Z,6
2022-12-05T14:31:52.630Z,6
2022-12-05T14:37:30.422Z,6
2022-12-05T14:43:12.049Z,5.9
2022-12-05T14:48:47.230Z,5.9
2022-12-05T14:54:11.980Z,5.9
2022-12-05T14:59:57.389Z,5.9
2022-12-05T15:05:37.574Z,5.9
2022-12-05T15:11:52.926Z,5.9
2022-12-05T15:17:32.493Z,5.9
2022-12-05T15:23:14.920Z,5.9
2022-12-05T15:29:24.038Z,5.9
2022-12-05T15:34:46.636Z,5.9
2022-12-05T15:40:29.199Z,5.9
2022-12-05T15:46:15.582Z,5.9
2022-12-05T15:51:53.393Z,5.9
2022-12-05T15:57:37.419Z,5.9
2022-12-05T16:03:19.194Z,5.9
2022-12-05T16:09:01.670Z,5.9
2022-12-05T16:15:15.272Z,5.9
2022-12-05T16:20:42.407Z,5.9
2022-12-05T16:26:25.879Z,5.8
2022-12-05T16:32:04.458Z,5.8
2022-12-05T16:37:43.028Z,5.8
2022-12-05T16:43:21.287Z,5.8
2022-12-05T16:49:07.418Z,5.8
2022-12-05T16:54:35.745Z,5.7
2022-12-05T16:59:58.144Z,5.7
2022-12-05T17:05:51.717Z,5.7
2022-12-05T17:11:33.582Z,5.7
2022-12-05T17:22:43.306Z,5.7
2022-12-05T17:28:21.402Z,5.6
2022-12-05T17:33:34.762Z,5.6
2022-12-05T17:39:13.023Z,5.6
2022-12-05T17:44:54.034Z,5.6
2022-12-05T17:50:33.906Z,5.6
2022-12-05T17:56:22.010Z,5.6
2022-12-05T18:01:44.080Z,5.6
2022-12-05T18:07:10.856Z,5.6
2022-12-05T18:12:33.312Z,5.6
2022-12-05T18:17:45.570Z,5.6
2022-12-05T18:22:54.823Z,5.6
2022-12-05T18:28:01.684Z,5.7
2022-12-05T18:33:43.054Z,5.7
2022-12-05T18:39:11.933Z,5.7
2022-12-05T18:44:50.151Z,5.7
2022-12-05T18:50:45.099Z,5.6
2022-12-05T18:57:26.778Z,5.6
2022-12-05T19:03:09.305Z,5.6
2022-12-05T19:08:47.765Z,5.6
2022-12-05T19:14:26.488Z,5.6
2022-12-05T19:19:35.678Z,5.6
2022-12-05T19:24:46.211Z,5.6
2022-12-05T19:30:26.546Z,5.6
2022-12-05T19:36:06.981Z,5.6
2022-12-05T19:41:15.086Z,5.6
2022-12-05T19:46:59.314Z,5.7
2022-12-05T19:52:22.715Z,5.6
2022-12-05T19:58:04.584Z,5.5
2022-12-05T20:03:47.642Z,5.5
2022-12-05T20:09:11.356Z,5.4
2022-12-05T20:15:06.802Z,5.4
2022-12-05T20:20:30.696Z,5.5
2022-12-05T20:25:53.929Z,5.5
2022-12-05T20:31:32.882Z,5.5
2022-12-05T20:37:10.160Z,5.4
2022-12-05T20:42:37.571Z,5.4
2022-12-05T20:48:16.876Z,5.2
2022-12-05T20:53:54.688Z,5.1
2022-12-05T20:59:33.894Z,5.1
2022-12-05T21:05:18.419Z,5.1
2022-12-05T21:10:59.050Z,5.1
2022-12-05T21:16:37.477Z,5.1
2022-12-05T21:22:15.903Z,5.3
2022-12-05T21:27:53.789Z,5.4
2022-12-05T21:33:32.261Z,5.4
2022-12-05T21:38:56.133Z,5.4
2022-12-05T21:44:10.231Z,5.4
2022-12-05T21:49:37.936Z,5.4
2022-12-05T21:55:16.186Z,5.4
2022-12-05T22:00:59.549Z,5.4
2022-12-05T22:06:22.846Z,5.4
2022-12-05T22:12:05.770Z,5.4
2022-12-05T22:17:43.952Z,5.4
2022-12-05T22:23:22.701Z,5.5
2022-12-05T22:29:00.319Z,5.5
2022-12-05T22:34:41.016Z,5.5
2022-12-05T22:40:09.699Z,5.5
2022-12-05T22:45:47.180Z,5.5
2022-12-05T22:51:26.910Z,5.3
2022-12-05T22:57:05.294Z,5.1
2022-12-05T23:02:43.260Z,4.9
2022-12-05T23:08:25.757Z,4.9
2022-12-05T23:14:04.025Z,4.9
2022-12-05T23:19:43.265Z,4.9
2022-12-05T23:25:21.521Z,5
2022-12-05T23:30:59.663Z,5
2022-12-05T23:36:39.507Z,5
2022-12-05T23:42:17.885Z,4.9
2022-12-05T23:47:56.329Z,5
2022-12-05T23:53:35.099Z,5.1
